sensor_id;sensor_type;location;lat;lon;timestamp;P1;durP1;ratioP1;P2;durP2;ratioP2
55362;SDS011;41244;49.242;9.060;2023-02-28T00:01:19;6.93;;;4.40;;
55362;SDS011;41244;49.242;9.060;2023-02-28T00:03:45;6.43;;;4.63;;
55362;SDS011;41244;49.242;9.060;2023-02-28T00:06:10;6.10;;;4.43;;
55362;SDS011;41244;49.242;9.060;2023-02-28T00:08:37;4.88;;;4.38;;
55362;SDS011;41244;49.242;9.060;2023-02-28T00:11:08;6.20;;;4.75;;
55362;SDS011;41244;49.242;9.060;2023-02-28T00:13:38;7.28;;;4.88;;
55362;SDS011;41244;49.242;9.060;2023-02-28T00:16:08;6.57;;;4.82;;
55362;SDS011;41244;49.242;9.060;2023-02-28T00:18:36;5.07;;;4.30;;
55362;SDS011;41244;49.242;9.060;2023-02-28T00:21:03;9.32;;;5.15;;
55362;SDS011;41244;49.242;9.060;2023-02-28T00:23:29;5.93;;;4.30;;
55362;SDS011;41244;49.242;9.060;2023-02-28T00:25:55;5.18;;;4.68;;
55362;SDS011;41244;49.242;9.060;2023-02-28T00:28:21;6.57;;;4.47;;
55362;SDS011;41244;49.242;9.060;2023-02-28T00:30:47;5.03;;;4.50;;
55362;SDS011;41244;49.242;9.060;2023-02-28T00:33:13;5.43;;;4.82;;
55362;SDS011;41244;49.242;9.060;2023-02-28T00:35:39;6.32;;;4.88;;
55362;SDS011;41244;49.242;9.060;2023-02-28T00:38:05;6.25;;;4.97;;
55362;SDS011;41244;49.242;9.060;2023-02-28T00:40:31;5.45;;;4.60;;
55362;SDS011;41244;49.242;9.060;2023-02-28T00:42:57;6.53;;;5.45;;
55362;SDS011;41244;49.242;9.060;2023-02-28T00:45:22;5.75;;;4.82;;
55362;SDS011;41244;49.242;9.060;2023-02-28T00:47:48;6.22;;;5.35;;
55362;SDS011;41244;49.242;9.060;2023-02-28T00:50:18;7.13;;;5.60;;
55362;SDS011;41244;49.242;9.060;2023-02-28T00:52:45;7.53;;;4.97;;
55362;SDS011;41244;49.242;9.060;2023-02-28T00:55:12;6.00;;;5.10;;
55362;SDS011;41244;49.242;9.060;2023-02-28T00:57:37;6.88;;;5.22;;
55362;SDS011;41244;49.242;9.060;2023-02-28T01:00:04;7.53;;;5.75;;
55362;SDS011;41244;49.242;9.060;2023-02-28T01:02:31;6.75;;;5.50;;
55362;SDS011;41244;49.242;9.060;2023-02-28T01:04:57;7.13;;;5.13;;
55362;SDS011;41244;49.242;9.060;2023-02-28T01:11:07;6.88;;;5.63;;
55362;SDS011;41244;49.242;9.060;2023-02-28T01:13:36;7.53;;;5.90;;
55362;SDS011;41244;49.242;9.060;2023-02-28T01:16:02;7.07;;;5.88;;
55362;SDS011;41244;49.242;9.060;2023-02-28T01:18:28;7.20;;;5.03;;
55362;SDS011;41244;49.242;9.060;2023-02-28T01:20:54;8.60;;;5.25;;
55362;SDS011;41244;49.242;9.060;2023-02-28T01:23:21;6.72;;;5.35;;
55362;SDS011;41244;49.242;9.060;2023-02-28T01:25:48;6.32;;;5.35;;
55362;SDS011;41244;49.242;9.060;2023-02-28T01:28:17;7.75;;;5.70;;
55362;SDS011;41244;49.242;9.060;2023-02-28T01:30:46;5.88;;;5.28;;
55362;SDS011;41244;49.242;9.060;2023-02-28T01:33:13;6.00;;;5.40;;
55362;SDS011;41244;49.242;9.060;2023-02-28T01:35:39;5.50;;;5.00;;
55362;SDS011;41244;49.242;9.060;2023-02-28T01:38:05;6.88;;;5.72;;
55362;SDS011;41244;49.242;9.060;2023-02-28T01:40:30;7.03;;;5.55;;
55362;SDS011;41244;49.242;9.060;2023-02-28T01:42:56;9.50;;;6.18;;
55362;SDS011;41244;49.242;9.060;2023-02-28T01:45:26;7.00;;;5.20;;
55362;SDS011;41244;49.242;9.060;2023-02-28T01:47:55;8.75;;;5.55;;
55362;SDS011;41244;49.242;9.060;2023-02-28T01:50:28;7.20;;;5.97;;
55362;SDS011;41244;49.242;9.060;2023-02-28T01:52:57;8.95;;;5.95;;
55362;SDS011;41244;49.242;9.060;2023-02-28T01:55:27;5.63;;;5.07;;
55362;SDS011;41244;49.242;9.060;2023-02-28T01:57:54;7.55;;;5.97;;
55362;SDS011;41244;49.242;9.060;2023-02-28T02:00:23;8.07;;;6.03;;
55362;SDS011;41244;49.242;9.060;2023-02-28T02:02:53;6.45;;;5.55;;
55362;SDS011;41244;49.242;9.060;2023-02-28T02:05:24;9.20;;;5.95;;
55362;SDS011;41244;49.242;9.060;2023-02-28T02:07:57;7.78;;;5.45;;
55362;SDS011;41244;49.242;9.060;2023-02-28T02:16:30;6.88;;;5.68;;
55362;SDS011;41244;49.242;9.060;2023-02-28T02:22:09;7.23;;;6.20;;
55362;SDS011;41244;49.242;9.060;2023-02-28T02:24:59;7.47;;;5.72;;
55362;SDS011;41244;49.242;9.060;2023-02-28T02:33:46;7.63;;;6.00;;
55362;SDS011;41244;49.242;9.060;2023-02-28T02:36:42;10.68;;;6.45;;
55362;SDS011;41244;49.242;9.060;2023-02-28T02:39:32;8.50;;;6.20;;
55362;SDS011;41244;49.242;9.060;2023-02-28T02:42:29;12.88;;;6.63;;
55362;SDS011;41244;49.242;9.060;2023-02-28T02:45:06;7.93;;;6.03;;
55362;SDS011;41244;49.242;9.060;2023-02-28T02:47:40;7.03;;;5.75;;
55362;SDS011;41244;49.242;9.060;2023-02-28T02:50:08;7.85;;;5.93;;
55362;SDS011;41244;49.242;9.060;2023-02-28T02:52:43;7.32;;;5.43;;
55362;SDS011;41244;49.242;9.060;2023-02-28T02:55:15;7.43;;;5.70;;
55362;SDS011;41244;49.242;9.060;2023-02-28T02:57:45;7.63;;;6.15;;
55362;SDS011;41244;49.242;9.060;2023-02-28T03:00:19;8.95;;;6.07;;
55362;SDS011;41244;49.242;9.060;2023-02-28T03:02:50;8.18;;;5.88;;
55362;SDS011;41244;49.242;9.060;2023-02-28T03:05:19;7.22;;;6.15;;
55362;SDS011;41244;49.242;9.060;2023-02-28T03:08:03;6.82;;;5.65;;
55362;SDS011;41244;49.242;9.060;2023-02-28T03:10:35;10.25;;;5.72;;
55362;SDS011;41244;49.242;9.060;2023-02-28T03:13:51;9.80;;;6.55;;
55362;SDS011;41244;49.242;9.060;2023-02-28T03:36:51;8.15;;;6.28;;
55362;SDS011;41244;49.242;9.060;2023-02-28T03:39:22;8.63;;;6.38;;
55362;SDS011;41244;49.242;9.060;2023-02-28T03:41:59;7.57;;;6.25;;
55362;SDS011;41244;49.242;9.060;2023-02-28T03:44:35;10.25;;;6.82;;
55362;SDS011;41244;49.242;9.060;2023-02-28T03:49:40;9.27;;;6.60;;
55362;SDS011;41244;49.242;9.060;2023-02-28T03:52:44;9.32;;;6.90;;
55362;SDS011;41244;49.242;9.060;2023-02-28T03:55:16;11.57;;;6.90;;
55362;SDS011;41244;49.242;9.060;2023-02-28T04:00:34;10.45;;;7.47;;
55362;SDS011;41244;49.242;9.060;2023-02-28T04:03:03;8.20;;;6.50;;
55362;SDS011;41244;49.242;9.060;2023-02-28T04:05:30;8.05;;;6.55;;
55362;SDS011;41244;49.242;9.060;2023-02-28T04:08:03;9.05;;;6.25;;
55362;SDS011;41244;49.242;9.060;2023-02-28T04:10:30;8.45;;;6.70;;
55362;SDS011;41244;49.242;9.060;2023-02-28T04:12:56;10.07;;;7.25;;
55362;SDS011;41244;49.242;9.060;2023-02-28T04:15:22;7.50;;;6.68;;
55362;SDS011;41244;49.242;9.060;2023-02-28T04:17:49;10.40;;;7.40;;
55362;SDS011;41244;49.242;9.060;2023-02-28T04:20:15;8.95;;;6.75;;
55362;SDS011;41244;49.242;9.060;2023-02-28T04:22:41;7.85;;;6.78;;
55362;SDS011;41244;49.242;9.060;2023-02-28T04:25:07;10.75;;;7.28;;
55362;SDS011;41244;49.242;9.060;2023-02-28T04:27:33;10.32;;;6.80;;
55362;SDS011;41244;49.242;9.060;2023-02-28T04:29:59;10.68;;;6.85;;
55362;SDS011;41244;49.242;9.060;2023-02-28T04:32:25;9.65;;;7.32;;
55362;SDS011;41244;49.242;9.060;2023-02-28T04:34:50;9.38;;;8.07;;
55362;SDS011;41244;49.242;9.060;2023-02-28T04:37:16;8.30;;;6.88;;
55362;SDS011;41244;49.242;9.060;2023-02-28T04:39:42;9.07;;;7.25;;
55362;SDS011;41244;49.242;9.060;2023-02-28T04:42:08;9.35;;;6.88;;
55362;SDS011;41244;49.242;9.060;2023-02-28T04:44:35;11.32;;;7.38;;
55362;SDS011;41244;49.242;9.060;2023-02-28T04:47:01;9.00;;;7.35;;
55362;SDS011;41244;49.242;9.060;2023-02-28T04:49:27;10.38;;;6.95;;
55362;SDS011;41244;49.242;9.060;2023-02-28T04:51:53;9.15;;;7.13;;
55362;SDS011;41244;49.242;9.060;2023-02-28T04:54:19;11.20;;;6.72;;
55362;SDS011;41244;49.242;9.060;2023-02-28T04:56:45;10.90;;;7.45;;
55362;SDS011;41244;49.242;9.060;2023-02-28T04:59:11;11.35;;;6.95;;
55362;SDS011;41244;49.242;9.060;2023-02-28T05:01:36;8.80;;;6.28;;
55362;SDS011;41244;49.242;9.060;2023-02-28T05:04:03;8.80;;;7.90;;
55362;SDS011;41244;49.242;9.060;2023-02-28T05:06:30;11.35;;;7.50;;
55362;SDS011;41244;49.242;9.060;2023-02-28T05:08:57;9.25;;;7.03;;
55362;SDS011;41244;49.242;9.060;2023-02-28T05:11:28;8.88;;;7.57;;
55362;SDS011;41244;49.242;9.060;2023-02-28T05:14:01;8.40;;;6.78;;
55362;SDS011;41244;49.242;9.060;2023-02-28T05:16:29;8.13;;;6.63;;
55362;SDS011;41244;49.242;9.060;2023-02-28T05:18:56;8.40;;;7.35;;
55362;SDS011;41244;49.242;9.060;2023-02-28T05:23:58;11.73;;;7.25;;
55362;SDS011;41244;49.242;9.060;2023-02-28T05:26:36;8.55;;;7.22;;
55362;SDS011;41244;49.242;9.060;2023-02-28T05:29:07;9.50;;;6.43;;
55362;SDS011;41244;49.242;9.060;2023-02-28T05:31:33;10.30;;;7.18;;
55362;SDS011;41244;49.242;9.060;2023-02-28T05:33:59;10.27;;;7.03;;
55362;SDS011;41244;49.242;9.060;2023-02-28T05:36:25;10.18;;;7.70;;
55362;SDS011;41244;49.242;9.060;2023-02-28T05:38:51;10.02;;;7.85;;
55362;SDS011;41244;49.242;9.060;2023-02-28T05:41:17;9.88;;;7.75;;
55362;SDS011;41244;49.242;9.060;2023-02-28T05:43:45;11.73;;;7.68;;
55362;SDS011;41244;49.242;9.060;2023-02-28T05:46:11;8.73;;;7.40;;
55362;SDS011;41244;49.242;9.060;2023-02-28T05:48:38;9.45;;;6.75;;
55362;SDS011;41244;49.242;9.060;2023-02-28T05:51:05;9.75;;;7.07;;
55362;SDS011;41244;49.242;9.060;2023-02-28T05:53:32;9.93;;;7.10;;
55362;SDS011;41244;49.242;9.060;2023-02-28T05:55:58;12.60;;;8.40;;
55362;SDS011;41244;49.242;9.060;2023-02-28T05:58:24;7.88;;;7.03;;
55362;SDS011;41244;49.242;9.060;2023-02-28T06:00:54;9.50;;;7.25;;
55362;SDS011;41244;49.242;9.060;2023-02-28T06:03:19;9.90;;;8.05;;
55362;SDS011;41244;49.242;9.060;2023-02-28T06:05:45;11.90;;;7.60;;
55362;SDS011;41244;49.242;9.060;2023-02-28T06:08:11;10.15;;;7.50;;
55362;SDS011;41244;49.242;9.060;2023-02-28T06:10:37;10.23;;;7.80;;
55362;SDS011;41244;49.242;9.060;2023-02-28T06:13:03;9.13;;;7.50;;
55362;SDS011;41244;49.242;9.060;2023-02-28T06:15:31;10.23;;;7.90;;
55362;SDS011;41244;49.242;9.060;2023-02-28T06:17:57;10.50;;;7.32;;
55362;SDS011;41244;49.242;9.060;2023-02-28T06:20:24;10.15;;;7.97;;
55362;SDS011;41244;49.242;9.060;2023-02-28T06:22:54;11.77;;;7.95;;
55362;SDS011;41244;49.242;9.060;2023-02-28T06:25:26;9.35;;;7.10;;
55362;SDS011;41244;49.242;9.060;2023-02-28T06:27:52;11.48;;;7.93;;
55362;SDS011;41244;49.242;9.060;2023-02-28T06:30:20;16.80;;;8.25;;
55362;SDS011;41244;49.242;9.060;2023-02-28T06:32:49;9.90;;;7.18;;
55362;SDS011;41244;49.242;9.060;2023-02-28T06:35:15;8.65;;;7.45;;
55362;SDS011;41244;49.242;9.060;2023-02-28T06:37:41;13.63;;;7.90;;
55362;SDS011;41244;49.242;9.060;2023-02-28T06:40:09;11.07;;;7.30;;
55362;SDS011;41244;49.242;9.060;2023-02-28T06:42:35;9.75;;;7.68;;
55362;SDS011;41244;49.242;9.060;2023-02-28T06:45:01;9.50;;;8.07;;
55362;SDS011;41244;49.242;9.060;2023-02-28T06:47:33;9.43;;;7.95;;
55362;SDS011;41244;49.242;9.060;2023-02-28T06:50:01;11.48;;;8.23;;
55362;SDS011;41244;49.242;9.060;2023-02-28T06:52:27;9.85;;;7.50;;
55362;SDS011;41244;49.242;9.060;2023-02-28T06:54:53;13.05;;;8.20;;
55362;SDS011;41244;49.242;9.060;2023-02-28T06:57:25;9.27;;;7.15;;
55362;SDS011;41244;49.242;9.060;2023-02-28T06:59:56;11.02;;;7.70;;
55362;SDS011;41244;49.242;9.060;2023-02-28T07:02:26;11.10;;;8.63;;
55362;SDS011;41244;49.242;9.060;2023-02-28T07:04:52;9.55;;;7.80;;
55362;SDS011;41244;49.242;9.060;2023-02-28T07:07:18;12.63;;;7.32;;
55362;SDS011;41244;49.242;9.060;2023-02-28T07:09:44;11.93;;;9.57;;
55362;SDS011;41244;49.242;9.060;2023-02-28T07:12:10;11.60;;;7.47;;
55362;SDS011;41244;49.242;9.060;2023-02-28T07:14:36;10.60;;;7.85;;
55362;SDS011;41244;49.242;9.060;2023-02-28T07:17:02;10.70;;;7.65;;
55362;SDS011;41244;49.242;9.060;2023-02-28T07:19:28;13.05;;;7.55;;
55362;SDS011;41244;49.242;9.060;2023-02-28T07:21:54;10.68;;;7.68;;
55362;SDS011;41244;49.242;9.060;2023-02-28T07:24:19;10.90;;;8.35;;
55362;SDS011;41244;49.242;9.060;2023-02-28T07:26:45;10.20;;;8.07;;
55362;SDS011;41244;49.242;9.060;2023-02-28T07:29:11;10.18;;;7.80;;
55362;SDS011;41244;49.242;9.060;2023-02-28T07:31:37;7.95;;;6.00;;
55362;SDS011;41244;49.242;9.060;2023-02-28T07:34:03;11.02;;;8.45;;
55362;SDS011;41244;49.242;9.060;2023-02-28T07:36:28;9.55;;;7.57;;
55362;SDS011;41244;49.242;9.060;2023-02-28T07:38:54;11.95;;;7.30;;
55362;SDS011;41244;49.242;9.060;2023-02-28T07:41:21;12.02;;;7.78;;
55362;SDS011;41244;49.242;9.060;2023-02-28T07:43:48;10.88;;;8.23;;
55362;SDS011;41244;49.242;9.060;2023-02-28T07:46:15;13.75;;;7.65;;
55362;SDS011;41244;49.242;9.060;2023-02-28T07:48:41;10.77;;;7.90;;
55362;SDS011;41244;49.242;9.060;2023-02-28T07:51:08;10.40;;;7.65;;
55362;SDS011;41244;49.242;9.060;2023-02-28T07:53:34;12.27;;;8.52;;
55362;SDS011;41244;49.242;9.060;2023-02-28T07:56:00;10.48;;;7.85;;
55362;SDS011;41244;49.242;9.060;2023-02-28T07:58:27;18.40;;;9.77;;
55362;SDS011;41244;49.242;9.060;2023-02-28T08:00:54;10.48;;;7.32;;
55362;SDS011;41244;49.242;9.060;2023-02-28T08:03:21;12.35;;;8.82;;
55362;SDS011;41244;49.242;9.060;2023-02-28T08:05:48;10.20;;;9.02;;
55362;SDS011;41244;49.242;9.060;2023-02-28T08:08:14;10.38;;;8.15;;
55362;SDS011;41244;49.242;9.060;2023-02-28T08:10:40;11.35;;;8.25;;
55362;SDS011;41244;49.242;9.060;2023-02-28T08:13:07;11.98;;;8.30;;
55362;SDS011;41244;49.242;9.060;2023-02-28T08:15:33;14.30;;;8.80;;
55362;SDS011;41244;49.242;9.060;2023-02-28T08:17:58;11.02;;;8.70;;
55362;SDS011;41244;49.242;9.060;2023-02-28T08:20:25;11.85;;;8.88;;
55362;SDS011;41244;49.242;9.060;2023-02-28T08:22:51;10.13;;;8.20;;
55362;SDS011;41244;49.242;9.060;2023-02-28T08:25:17;12.57;;;9.13;;
55362;SDS011;41244;49.242;9.060;2023-02-28T08:27:43;14.32;;;7.63;;
55362;SDS011;41244;49.242;9.060;2023-02-28T08:30:13;10.73;;;7.93;;
55362;SDS011;41244;49.242;9.060;2023-02-28T08:32:40;10.20;;;8.73;;
55362;SDS011;41244;49.242;9.060;2023-02-28T08:35:06;12.88;;;8.82;;
55362;SDS011;41244;49.242;9.060;2023-02-28T08:37:34;14.55;;;9.20;;
55362;SDS011;41244;49.242;9.060;2023-02-28T08:40:00;8.88;;;7.18;;
55362;SDS011;41244;49.242;9.060;2023-02-28T08:42:26;9.68;;;8.25;;
55362;SDS011;41244;49.242;9.060;2023-02-28T08:44:51;11.15;;;8.68;;
55362;SDS011;41244;49.242;9.060;2023-02-28T08:47:17;13.48;;;8.45;;
55362;SDS011;41244;49.242;9.060;2023-02-28T08:49:44;14.68;;;9.30;;
55362;SDS011;41244;49.242;9.060;2023-02-28T08:52:09;10.05;;;7.72;;
55362;SDS011;41244;49.242;9.060;2023-02-28T08:54:35;13.43;;;9.57;;
55362;SDS011;41244;49.242;9.060;2023-02-28T08:57:02;14.40;;;9.70;;
55362;SDS011;41244;49.242;9.060;2023-02-28T08:59:28;10.38;;;7.75;;
55362;SDS011;41244;49.242;9.060;2023-02-28T09:01:54;14.25;;;9.07;;
55362;SDS011;41244;49.242;9.060;2023-02-28T09:04:20;15.02;;;11.60;;
55362;SDS011;41244;49.242;9.060;2023-02-28T09:06:46;13.23;;;10.05;;
55362;SDS011;41244;49.242;9.060;2023-02-28T09:09:13;12.73;;;9.02;;
55362;SDS011;41244;49.242;9.060;2023-02-28T09:11:40;11.57;;;8.95;;
55362;SDS011;41244;49.242;9.060;2023-02-28T09:14:06;14.02;;;9.55;;
55362;SDS011;41244;49.242;9.060;2023-02-28T09:16:32;11.20;;;8.55;;
55362;SDS011;41244;49.242;9.060;2023-02-28T09:18:58;10.20;;;8.77;;
55362;SDS011;41244;49.242;9.060;2023-02-28T09:21:25;12.35;;;9.13;;
55362;SDS011;41244;49.242;9.060;2023-02-28T09:23:51;11.55;;;8.98;;
55362;SDS011;41244;49.242;9.060;2023-02-28T09:26:21;12.80;;;8.90;;
55362;SDS011;41244;49.242;9.060;2023-02-28T09:28:49;11.38;;;9.25;;
55362;SDS011;41244;49.242;9.060;2023-02-28T09:31:17;12.20;;;8.90;;
55362;SDS011;41244;49.242;9.060;2023-02-28T09:33:49;12.07;;;9.48;;
55362;SDS011;41244;49.242;9.060;2023-02-28T09:36:16;9.50;;;7.10;;
55362;SDS011;41244;49.242;9.060;2023-02-28T09:38:42;12.43;;;8.90;;
55362;SDS011;41244;49.242;9.060;2023-02-28T09:43:47;14.40;;;8.40;;
55362;SDS011;41244;49.242;9.060;2023-02-28T09:46:33;13.65;;;9.45;;
55362;SDS011;41244;49.242;9.060;2023-02-28T09:49:12;12.85;;;9.27;;
55362;SDS011;41244;49.242;9.060;2023-02-28T09:51:54;12.65;;;9.15;;
55362;SDS011;41244;49.242;9.060;2023-02-28T09:54:26;12.33;;;10.60;;
55362;SDS011;41244;49.242;9.060;2023-02-28T09:56:59;10.23;;;8.60;;
55362;SDS011;41244;49.242;9.060;2023-02-28T10:05:43;11.18;;;8.52;;
55362;SDS011;41244;49.242;9.060;2023-02-28T10:08:33;11.43;;;8.63;;
55362;SDS011;41244;49.242;9.060;2023-02-28T10:11:07;14.13;;;10.80;;
55362;SDS011;41244;49.242;9.060;2023-02-28T10:13:52;11.70;;;8.77;;
55362;SDS011;41244;49.242;9.060;2023-02-28T10:17:00;12.90;;;10.27;;
55362;SDS011;41244;49.242;9.060;2023-02-28T10:22:15;15.40;;;10.02;;
55362;SDS011;41244;49.242;9.060;2023-02-28T10:24:53;16.70;;;10.52;;
55362;SDS011;41244;49.242;9.060;2023-02-28T10:29:50;12.30;;;9.68;;
55362;SDS011;41244;49.242;9.060;2023-02-28T10:32:19;12.07;;;9.27;;
55362;SDS011;41244;49.242;9.060;2023-02-28T10:34:52;11.60;;;8.70;;
55362;SDS011;41244;49.242;9.060;2023-02-28T10:37:25;12.38;;;9.25;;
55362;SDS011;41244;49.242;9.060;2023-02-28T10:39:52;11.45;;;9.23;;
55362;SDS011;41244;49.242;9.060;2023-02-28T10:42:18;11.90;;;8.95;;
55362;SDS011;41244;49.242;9.060;2023-02-28T10:47:31;13.30;;;9.95;;
55362;SDS011;41244;49.242;9.060;2023-02-28T10:50:01;10.48;;;8.93;;
55362;SDS011;41244;49.242;9.060;2023-02-28T10:52:34;13.13;;;10.07;;
55362;SDS011;41244;49.242;9.060;2023-02-28T10:55:15;16.83;;;10.35;;
55362;SDS011;41244;49.242;9.060;2023-02-28T10:57:47;12.23;;;9.77;;
55362;SDS011;41244;49.242;9.060;2023-02-28T11:00:24;16.85;;;10.05;;
55362;SDS011;41244;49.242;9.060;2023-02-28T11:02:50;13.07;;;9.50;;
55362;SDS011;41244;49.242;9.060;2023-02-28T11:05:32;11.50;;;8.82;;
55362;SDS011;41244;49.242;9.060;2023-02-28T11:10:52;11.43;;;9.40;;
55362;SDS011;41244;49.242;9.060;2023-02-28T11:13:28;11.75;;;9.73;;
55362;SDS011;41244;49.242;9.060;2023-02-28T11:15:59;15.27;;;9.40;;
55362;SDS011;41244;49.242;9.060;2023-02-28T11:21:16;17.05;;;9.90;;
55362;SDS011;41244;49.242;9.060;2023-02-28T11:23:47;10.80;;;8.93;;
55362;SDS011;41244;49.242;9.060;2023-02-28T11:26:16;11.02;;;9.70;;
55362;SDS011;41244;49.242;9.060;2023-02-28T11:29:12;11.38;;;9.68;;
55362;SDS011;41244;49.242;9.060;2023-02-28T11:31:41;11.90;;;8.98;;
55362;SDS011;41244;49.242;9.060;2023-02-28T11:34:22;10.63;;;9.07;;
55362;SDS011;41244;49.242;9.060;2023-02-28T11:36:50;12.73;;;10.27;;
55362;SDS011;41244;49.242;9.060;2023-02-28T11:39:18;12.10;;;9.85;;
55362;SDS011;41244;49.242;9.060;2023-02-28T11:41:58;12.70;;;10.40;;
55362;SDS011;41244;49.242;9.060;2023-02-28T11:45:07;11.73;;;9.38;;
55362;SDS011;41244;49.242;9.060;2023-02-28T11:53:43;14.98;;;10.80;;
55362;SDS011;41244;49.242;9.060;2023-02-28T12:07:42;14.05;;;11.43;;
55362;SDS011;41244;49.242;9.060;2023-02-28T12:10:27;15.00;;;11.13;;
55362;SDS011;41244;49.242;9.060;2023-02-28T12:24:45;12.73;;;10.20;;
55362;SDS011;41244;49.242;9.060;2023-02-28T12:27:21;14.38;;;10.88;;
55362;SDS011;41244;49.242;9.060;2023-02-28T12:29:50;16.45;;;12.50;;
55362;SDS011;41244;49.242;9.060;2023-02-28T12:32:40;13.40;;;12.00;;
55362;SDS011;41244;49.242;9.060;2023-02-28T12:38:02;14.65;;;11.93;;
55362;SDS011;41244;49.242;9.060;2023-02-28T12:41:18;13.18;;;10.98;;
55362;SDS011;41244;49.242;9.060;2023-02-28T12:43:34;15.43;;;11.43;;
55362;SDS011;41244;49.242;9.060;2023-02-28T12:46:24;12.13;;;10.82;;
55362;SDS011;41244;49.242;9.060;2023-02-28T12:48:59;17.45;;;12.10;;
55362;SDS011;41244;49.242;9.060;2023-02-28T12:51:31;12.65;;;10.88;;
55362;SDS011;41244;49.242;9.060;2023-02-28T12:56:53;13.88;;;11.45;;
55362;SDS011;41244;49.242;9.060;2023-02-28T12:59:51;13.45;;;11.43;;
55362;SDS011;41244;49.242;9.060;2023-02-28T13:05:08;12.02;;;10.73;;
55362;SDS011;41244;49.242;9.060;2023-02-28T13:10:45;14.80;;;11.88;;
55362;SDS011;41244;49.242;9.060;2023-02-28T13:13:16;15.90;;;12.15;;
55362;SDS011;41244;49.242;9.060;2023-02-28T13:16:01;14.02;;;11.50;;
55362;SDS011;41244;49.242;9.060;2023-02-28T13:18:35;15.27;;;12.27;;
55362;SDS011;41244;49.242;9.060;2023-02-28T13:21:09;15.32;;;11.88;;
55362;SDS011;41244;49.242;9.060;2023-02-28T13:28:59;15.55;;;12.23;;
55362;SDS011;41244;49.242;9.060;2023-02-28T13:31:29;13.35;;;11.95;;
55362;SDS011;41244;49.242;9.060;2023-02-28T13:36:30;14.02;;;11.95;;
55362;SDS011;41244;49.242;9.060;2023-02-28T13:38:57;14.05;;;11.85;;
55362;SDS011;41244;49.242;9.060;2023-02-28T13:44:06;14.38;;;12.80;;
55362;SDS011;41244;49.242;9.060;2023-02-28T13:47:23;13.88;;;11.02;;
55362;SDS011;41244;49.242;9.060;2023-02-28T14:03:51;12.68;;;10.63;;
55362;SDS011;41244;49.242;9.060;2023-02-28T14:06:31;13.10;;;11.70;;
55362;SDS011;41244;49.242;9.060;2023-02-28T14:14:05;13.90;;;11.38;;
55362;SDS011;41244;49.242;9.060;2023-02-28T14:16:37;13.00;;;11.10;;
55362;SDS011;41244;49.242;9.060;2023-02-28T14:19:24;14.82;;;11.68;;
55362;SDS011;41244;49.242;9.060;2023-02-28T14:22:14;14.75;;;11.30;;
55362;SDS011;41244;49.242;9.060;2023-02-28T14:36:42;13.25;;;11.70;;
55362;SDS011;41244;49.242;9.060;2023-02-28T14:39:12;14.27;;;12.07;;
55362;SDS011;41244;49.242;9.060;2023-02-28T14:41:40;17.77;;;12.73;;
55362;SDS011;41244;49.242;9.060;2023-02-28T14:46:52;18.63;;;12.20;;
55362;SDS011;41244;49.242;9.060;2023-02-28T14:50:04;13.50;;;11.70;;
55362;SDS011;41244;49.242;9.060;2023-02-28T14:52:24;16.08;;;12.27;;
55362;SDS011;41244;49.242;9.060;2023-02-28T14:55:03;13.32;;;11.30;;
55362;SDS011;41244;49.242;9.060;2023-02-28T14:57:40;14.85;;;11.65;;
55362;SDS011;41244;49.242;9.060;2023-02-28T15:03:19;13.60;;;11.30;;
55362;SDS011;41244;49.242;9.060;2023-02-28T15:05:57;14.93;;;12.65;;
55362;SDS011;41244;49.242;9.060;2023-02-28T15:08:31;13.68;;;11.70;;
55362;SDS011;41244;49.242;9.060;2023-02-28T15:13:54;14.23;;;11.57;;
55362;SDS011;41244;49.242;9.060;2023-02-28T15:16:25;15.10;;;12.35;;
55362;SDS011;41244;49.242;9.060;2023-02-28T15:18:59;15.10;;;12.02;;
55362;SDS011;41244;49.242;9.060;2023-02-28T15:21:30;14.32;;;11.32;;
55362;SDS011;41244;49.242;9.060;2023-02-28T15:26:50;16.13;;;12.25;;
55362;SDS011;41244;49.242;9.060;2023-02-28T15:29:22;12.52;;;11.25;;
55362;SDS011;41244;49.242;9.060;2023-02-28T15:31:50;16.83;;;12.40;;
55362;SDS011;41244;49.242;9.060;2023-02-28T15:39:52;14.38;;;11.50;;
55362;SDS011;41244;49.242;9.060;2023-02-28T15:42:21;12.48;;;10.65;;
55362;SDS011;41244;49.242;9.060;2023-02-28T15:44:48;16.92;;;12.13;;
55362;SDS011;41244;49.242;9.060;2023-02-28T15:49:47;14.98;;;12.00;;
55362;SDS011;41244;49.242;9.060;2023-02-28T15:54:56;14.93;;;11.65;;
55362;SDS011;41244;49.242;9.060;2023-02-28T15:57:28;20.42;;;12.20;;
55362;SDS011;41244;49.242;9.060;2023-02-28T15:59:56;13.55;;;11.63;;
55362;SDS011;41244;49.242;9.060;2023-02-28T16:05:13;14.07;;;11.02;;
55362;SDS011;41244;49.242;9.060;2023-02-28T16:07:45;13.95;;;11.80;;
55362;SDS011;41244;49.242;9.060;2023-02-28T16:10:13;14.75;;;11.75;;
55362;SDS011;41244;49.242;9.060;2023-02-28T16:12:40;15.00;;;12.02;;
55362;SDS011;41244;49.242;9.060;2023-02-28T16:15:07;14.38;;;11.68;;
55362;SDS011;41244;49.242;9.060;2023-02-28T16:17:39;13.88;;;11.88;;
55362;SDS011;41244;49.242;9.060;2023-02-28T16:20:11;14.65;;;12.43;;
55362;SDS011;41244;49.242;9.060;2023-02-28T16:22:48;15.13;;;12.07;;
55362;SDS011;41244;49.242;9.060;2023-02-28T16:25:15;16.23;;;12.02;;
55362;SDS011;41244;49.242;9.060;2023-02-28T16:27:45;15.30;;;11.40;;
55362;SDS011;41244;49.242;9.060;2023-02-28T16:30:22;15.32;;;11.80;;
55362;SDS011;41244;49.242;9.060;2023-02-28T16:32:50;13.68;;;11.13;;
55362;SDS011;41244;49.242;9.060;2023-02-28T16:35:18;15.50;;;12.95;;
55362;SDS011;41244;49.242;9.060;2023-02-28T16:37:44;16.63;;;11.93;;
55362;SDS011;41244;49.242;9.060;2023-02-28T16:40:18;16.38;;;11.63;;
55362;SDS011;41244;49.242;9.060;2023-02-28T16:42:50;14.18;;;11.77;;
55362;SDS011;41244;49.242;9.060;2023-02-28T16:45:25;14.93;;;12.20;;
55362;SDS011;41244;49.242;9.060;2023-02-28T16:47:53;15.00;;;11.60;;
55362;SDS011;41244;49.242;9.060;2023-02-28T16:50:23;14.00;;;11.68;;
55362;SDS011;41244;49.242;9.060;2023-02-28T16:52:53;15.27;;;11.18;;
55362;SDS011;41244;49.242;9.060;2023-02-28T16:55:19;17.30;;;11.88;;
55362;SDS011;41244;49.242;9.060;2023-02-28T16:57:51;16.73;;;12.07;;
55362;SDS011;41244;49.242;9.060;2023-02-28T17:00:21;13.73;;;11.85;;
55362;SDS011;41244;49.242;9.060;2023-02-28T17:02:48;19.10;;;11.80;;
55362;SDS011;41244;49.242;9.060;2023-02-28T17:05:14;15.13;;;12.63;;
55362;SDS011;41244;49.242;9.060;2023-02-28T17:07:41;16.77;;;12.45;;
55362;SDS011;41244;49.242;9.060;2023-02-28T17:10:18;18.10;;;13.93;;
55362;SDS011;41244;49.242;9.060;2023-02-28T17:12:50;16.77;;;12.35;;
55362;SDS011;41244;49.242;9.060;2023-02-28T17:15:16;14.80;;;11.60;;
55362;SDS011;41244;49.242;9.060;2023-02-28T17:17:44;16.35;;;12.63;;
55362;SDS011;41244;49.242;9.060;2023-02-28T17:20:20;18.25;;;13.45;;
55362;SDS011;41244;49.242;9.060;2023-02-28T17:22:51;18.02;;;14.23;;
55362;SDS011;41244;49.242;9.060;2023-02-28T17:25:18;21.08;;;13.38;;
55362;SDS011;41244;49.242;9.060;2023-02-28T17:27:45;18.17;;;13.40;;
55362;SDS011;41244;49.242;9.060;2023-02-28T17:32:41;44.10;;;24.23;;
55362;SDS011;41244;49.242;9.060;2023-02-28T17:35:07;26.33;;;18.13;;
55362;SDS011;41244;49.242;9.060;2023-02-28T17:37:34;20.42;;;16.02;;
55362;SDS011;41244;49.242;9.060;2023-02-28T17:40:00;19.88;;;16.15;;
55362;SDS011;41244;49.242;9.060;2023-02-28T17:42:26;20.60;;;14.63;;
55362;SDS011;41244;49.242;9.060;2023-02-28T17:44:51;27.13;;;20.00;;
55362;SDS011;41244;49.242;9.060;2023-02-28T17:47:17;17.42;;;14.98;;
55362;SDS011;41244;49.242;9.060;2023-02-28T17:49:43;23.08;;;16.60;;
55362;SDS011;41244;49.242;9.060;2023-02-28T17:52:09;24.38;;;17.42;;
55362;SDS011;41244;49.242;9.060;2023-02-28T17:54:35;16.08;;;12.50;;